Time;durP1;ratioP1;P1;durP2;ratioP2;P2;SDS_P1;SDS_P2;PMS_P1;PMS_P2;Temp;Humidity;BMP_temperature;BMP_pressure;BME280_temperature;BME280_humidity;BME280_pressure;Samples;Min_cycle;Max_cycle;Signal;HPM_P1;HPM_P2
2022/06/19 00:00:39;;;;;;;8.48;2.30;;;;;;;19.45;60.64;100589.00;3568144;40;20053;-64
2022/06/19 00:03:15;;;;;;;9.68;2.33;;;;;;;19.53;60.22;100608.13;3567976;40;20316;-64
2022/06/19 00:05:41;;;;;;;6.25;2.30;;;;;;;19.49;60.79;100598.56;3567456;40;20073;-64
2022/06/19 00:08:08;;;;;;;8.95;2.30;;;;;;;19.27;61.01;100569.06;3569067;40;20385;-63
2022/06/19 00:10:33;;;;;;;7.97;2.63;;;;;;;19.42;60.70;100606.50;3567661;40;20055;-63
2022/06/19 00:12:59;;;;;;;7.82;2.55;;;;;;;19.41;60.77;100603.94;3569076;40;20056;-64
2022/06/19 00:15:25;;;;;;;5.80;2.05;;;;;;;19.33;60.65;100598.44;3570447;40;20325;-65
2022/06/19 00:17:50;;;;;;;7.28;2.13;;;;;;;19.24;60.84;100592.91;3569362;40;20069;-63
2022/06/19 00:20:16;;;;;;;8.85;2.63;;;;;;;19.19;61.03;100584.34;3568312;40;20056;-64
2022/06/19 00:22:42;;;;;;;7.60;2.10;;;;;;;19.17;60.86;100583.63;3569322;40;20051;-63
2022/06/19 00:25:08;;;;;;;9.10;2.28;;;;;;;19.12;61.20;100588.69;3569286;40;20136;-63
2022/06/19 00:27:40;;;;;;;8.32;1.83;;;;;;;19.11;61.69;100597.88;3568290;40;20143;-63
2022/06/19 00:30:11;;;;;;;8.07;2.05;;;;;;;18.99;60.69;100590.94;3569429;40;20126;-63
2022/06/19 00:32:37;;;;;;;10.40;2.58;;;;;;;19.00;60.95;100617.19;3567348;40;20075;-63
2022/06/19 00:35:05;;;;;;;8.45;2.45;;;;;;;18.92;61.29;100625.28;3567981;40;20068;-64
2022/06/19 00:37:31;;;;;;;8.40;2.30;;;;;;;18.67;60.57;100600.47;3568163;40;20051;-64
2022/06/19 00:39:57;;;;;;;7.22;2.53;;;;;;;18.77;61.04;100620.38;3568360;40;20343;-64
2022/06/19 00:42:24;;;;;;;8.88;2.28;;;;;;;18.72;61.55;100614.50;3568285;40;20124;-63
2022/06/19 00:44:51;;;;;;;11.38;2.88;;;;;;;18.69;61.26;100616.66;3568662;40;20072;-63
2022/06/19 00:47:26;;;;;;;10.75;2.67;;;;;;;18.63;60.79;100620.00;3570367;40;20070;-63
2022/06/19 00:50:04;;;;;;;10.77;2.53;;;;;;;18.56;61.22;100615.16;3568544;40;20065;-63
2022/06/19 00:52:39;;;;;;;6.55;1.92;;;;;;;18.14;60.99;100554.94;3567700;40;20068;-63
2022/06/19 00:55:13;;;;;;;8.90;2.00;;;;;;;18.44;60.30;100619.06;3566801;40;20061;-63
2022/06/19 00:57:49;;;;;;;10.07;2.95;;;;;;;18.40;60.67;100627.72;3568545;40;20292;-63
2022/06/19 01:00:26;;;;;;;9.63;2.42;;;;;;;18.32;60.05;100623.84;3559975;40;20045;-63
2022/06/19 01:02:58;;;;;;;10.35;2.50;;;;;;;18.24;59.56;100622.91;3569334;40;20061;-63
2022/06/19 01:05:27;;;;;;;10.00;2.47;;;;;;;18.18;59.70;100618.06;3568812;40;20053;-63
2022/06/19 01:07:57;;;;;;;12.18;2.55;;;;;;;18.13;60.42;100613.06;3567927;40;20678;-64
2022/06/19 01:10:23;;;;;;;13.27;2.92;;;;;;;18.11;60.00;100606.91;3571808;40;20376;-63
2022/06/19 01:12:49;;;;;;;10.07;2.60;;;;;;;18.04;59.64;100613.94;3569561;40;20087;-63
2022/06/19 01:15:24;;;;;;;12.27;2.95;;;;;;;17.99;59.10;100599.94;3567763;40;20072;-63
2022/06/19 01:17:58;;;;;;;10.52;2.70;;;;;;;18.06;59.58;100633.69;3568982;40;20079;-65
2022/06/19 01:20:27;;;;;;;14.13;2.97;;;;;;;18.02;58.67;100711.16;3570663;40;20053;-66
2022/06/19 01:23:31;;;;;;;13.63;2.67;;;;;;;17.96;57.55;100806.94;3566928;40;20049;-65
2022/06/19 01:25:57;;;;;;;10.20;2.75;;;;;;;17.86;58.06;100758.84;3567747;40;20387;-65
2022/06/19 01:28:45;;;;;;;9.48;2.38;;;;;;;17.82;57.27;100670.41;3568481;40;20056;-65
2022/06/19 01:31:32;;;;;;;10.40;2.70;;;;;;;17.73;58.37;100682.13;3568957;40;20069;-65
2022/06/19 01:34:28;;;;;;;10.18;2.50;;;;;;;17.56;57.41;100724.47;3567380;40;20091;-64
2022/06/19 01:37:20;;;;;;;10.50;2.45;;;;;;;17.70;56.62;100734.06;3569686;40;20383;-66
2022/06/19 01:39:58;;;;;;;9.10;2.47;;;;;;;17.40;56.14;100676.09;3565805;40;20526;-65
2022/06/19 01:42:25;;;;;;;11.48;2.50;;;;;;;17.48;56.54;100737.91;3569596;40;20079;-64
2022/06/19 01:44:54;;;;;;;10.55;2.55;;;;;;;17.40;55.32;100773.09;3567787;40;20139;-67
2022/06/19 01:47:23;;;;;;;13.30;2.80;;;;;;;17.40;54.98;100735.91;3569064;40;20067;-65
2022/06/19 01:49:53;;;;;;;11.18;2.67;;;;;;;17.37;55.40;100714.44;3568557;40;20072;-65
2022/06/19 01:52:22;;;;;;;12.70;2.45;;;;;;;17.00;55.45;100695.25;3569946;40;20053;-65
2022/06/19 01:55:06;;;;;;;13.77;3.22;;;;;;;17.25;54.91;100734.56;3568558;40;20406;-65
2022/06/19 01:57:38;;;;;;;10.70;2.78;;;;;;;17.20;54.59;100728.72;3569102;40;20059;-66
2022/06/19 02:00:09;;;;;;;11.57;2.70;;;;;;;17.08;54.21;100760.56;3569669;40;20063;-65
2022/06/19 02:02:36;;;;;;;10.35;2.40;;;;;;;16.79;54.21;100698.03;3568124;40;20075;-66
2022/06/19 02:05:03;;;;;;;12.10;2.58;;;;;;;17.00;53.55;100746.84;3568504;40;20089;-65
2022/06/19 02:07:30;;;;;;;10.10;2.75;;;;;;;16.92;52.69;100760.22;3570477;40;20049;-66
2022/06/19 02:10:00;;;;;;;9.82;2.25;;;;;;;16.89;53.28;100742.34;3570872;40;20384;-65
2022/06/19 02:12:31;;;;;;;8.85;2.33;;;;;;;16.77;52.67;100727.16;3568457;40;20053;-66
2022/06/19 02:14:57;;;;;;;10.65;2.60;;;;;;;16.82;51.65;100745.78;3570831;40;20053;-65
2022/06/19 02:17:35;;;;;;;8.02;2.30;;;;;;;16.71;51.47;100733.09;3569912;40;20120;-65
2022/06/19 02:20:03;;;;;;;11.95;2.75;;;;;;;16.72;51.66;100734.84;3567655;40;20049;-65
2022/06/19 02:22:28;;;;;;;7.68;2.25;;;;;;;16.72;50.89;100734.84;3569320;40;20067;-66
2022/06/19 02:24:54;;;;;;;10.13;2.38;;;;;;;16.71;50.42;100754.81;3568807;40;20061;-65
2022/06/19 02:27:20;;;;;;;9.98;2.30;;;;;;;16.70;51.29;100756.69;3570170;40;20609;-66
2022/06/19 02:29:47;;;;;;;11.30;2.30;;;;;;;16.71;50.22;100743.97;3568635;40;20072;-67
2022/06/19 02:32:27;;;;;;;8.00;1.95;;;;;;;16.72;50.33;100767.41;3569945;40;20122;-65
2022/06/19 02:34:53;;;;;;;12.27;2.45;;;;;;;16.70;50.73;100763.97;3569416;40;20091;-65
2022/06/19 02:37:26;;;;;;;9.55;2.42;;;;;;;16.71;50.99;100768.38;3569066;40;20359;-64
2022/06/19 02:40:07;;;;;;;;;;;;;;;16.75;50.42;100778.03;3570467;40;20096;-65
2022/06/19 02:42:39;;;;;;;9.25;2.28;;;;;;;16.73;50.26;100762.84;3569077;40;19939;-65
2022/06/19 02:45:17;;;;;;;7.95;2.00;;;;;;;16.74;51.02;100775.41;3569718;40;20049;-65
2022/06/19 02:47:45;;;;;;;8.60;2.03;;;;;;;16.76;49.83;100758.03;3568150;40;20056;-63
2022/06/19 02:50:18;;;;;;;7.20;2.20;;;;;;;16.80;49.01;100748.59;3569134;40;20068;-63
2022/06/19 02:52:44;;;;;;;10.93;2.25;;;;;;;16.79;49.75;100741.47;3566015;40;20053;-62
2022/06/19 02:55:12;;;;;;;7.03;2.28;;;;;;;16.74;49.17;100740.97;3568724;40;20119;-62
2022/06/19 02:57:39;;;;;;;7.68;2.08;;;;;;;16.78;48.79;100761.47;3568858;40;20446;-62
2022/06/19 03:00:09;;;;;;;9.57;1.80;;;;;;;16.75;48.90;100809.72;3570486;40;20146;-63
2022/06/19 03:02:35;;;;;;;8.88;1.95;;;;;;;16.96;48.92;100861.28;3568149;40;20065;-62
2022/06/19 03:05:05;;;;;;;6.78;2.10;;;;;;;17.00;48.25;100854.59;3569893;40;20126;-63
2022/06/19 03:07:31;;;;;;;10.98;2.00;;;;;;;16.99;47.57;100802.13;3569268;40;20299;-62
2022/06/19 03:09:57;;;;;;;7.13;1.90;;;;;;;16.91;47.44;100778.38;3570074;40;20061;-64
2022/06/19 03:12:23;;;;;;;6.93;1.70;;;;;;;16.94;47.71;100791.69;3571977;40;20068;-62
2022/06/19 03:14:50;;;;;;;9.27;1.90;;;;;;;17.01;47.99;100793.88;3568514;40;20071;-62
2022/06/19 03:17:21;;;;;;;7.88;1.50;;;;;;;17.01;47.50;100788.44;3568496;40;20101;-62
2022/06/19 03:19:48;;;;;;;6.38;1.80;;;;;;;17.05;46.50;100771.72;3566501;40;20139;-62
2022/06/19 03:22:13;;;;;;;6.35;1.30;;;;;;;16.93;46.39;100743.78;3571085;40;20112;-62
2022/06/19 03:24:40;;;;;;;5.68;1.83;;;;;;;16.81;46.71;100728.63;3570629;40;20064;-62
2022/06/19 03:27:07;;;;;;;6.03;1.70;;;;;;;16.75;46.32;100731.00;3569450;40;20045;-63
2022/06/19 03:29:33;;;;;;;6.18;1.67;;;;;;;16.70;47.33;100745.81;3570785;40;20403;-62
2022/06/19 03:32:00;;;;;;;10.05;2.47;;;;;;;16.55;47.08;100747.19;3571519;40;20061;-63
2022/06/19 03:34:25;;;;;;;3.35;1.23;;;;;;;16.62;46.42;100764.66;3570686;40;20055;-62
2022/06/19 03:36:51;;;;;;;4.60;1.38;;;;;;;16.59;46.80;100739.66;3570809;40;20060;-62
2022/06/19 03:39:18;;;;;;;9.73;1.58;;;;;;;16.46;46.77;100719.03;3570592;40;20060;-62
2022/06/19 03:41:44;;;;;;;3.97;1.30;;;;;;;16.54;47.08;100742.75;3568886;40;20127;-62
2022/06/19 03:44:10;;;;;;;6.55;1.15;;;;;;;16.50;46.77;100735.88;3570565;40;20061;-62
2022/06/19 03:46:36;;;;;;;4.22;1.05;;;;;;;16.51;46.67;100687.91;3571125;40;20052;-62
2022/06/19 03:49:02;;;;;;;5.57;1.10;;;;;;;16.50;46.81;100697.91;3572473;40;20403;-62
2022/06/19 03:51:29;;;;;;;6.05;1.13;;;;;;;16.36;46.97;100681.97;3573597;40;20457;-63
2022/06/19 03:53:56;;;;;;;3.90;1.00;;;;;;;16.47;47.02;100758.72;3569023;40;20381;-63
2022/06/19 03:56:28;;;;;;;7.18;1.30;;;;;;;16.57;46.92;100844.75;3571802;40;20051;-62
2022/06/19 03:58:54;;;;;;;6.90;1.02;;;;;;;16.62;46.51;100847.94;3568711;40;20040;-62
2022/06/19 04:01:34;;;;;;;4.18;1.15;;;;;;;16.64;46.81;100810.66;3570391;40;20342;-63
2022/06/19 04:04:00;;;;;;;5.20;1.27;;;;;;;16.35;46.58;100694.69;3558925;40;20065;-62
2022/06/19 04:06:33;;;;;;;6.22;1.30;;;;;;;16.61;46.95;100767.50;3572931;40;20101;-63
2022/06/19 04:08:59;;;;;;;5.45;1.55;;;;;;;16.58;46.15;100778.63;3559094;40;20124;-63
2022/06/19 04:11:28;;;;;;;3.85;1.02;;;;;;;16.54;45.48;100728.34;3568312;40;20135;-63
2022/06/19 04:13:54;;;;;;;8.05;1.25;;;;;;;16.57;45.90;100714.50;3567869;40;20381;-63
2022/06/19 04:16:32;;;;;;;5.97;1.17;;;;;;;16.59;45.93;100694.38;3566193;40;20057;-63
2022/06/19 04:19:02;;;;;;;7.65;1.30;;;;;;;16.54;45.74;100655.91;3568144;40;20063;-62
2022/06/19 04:21:32;;;;;;;8.25;1.52;;;;;;;16.59;45.34;100647.38;3571564;40;20158;-63
2022/06/19 04:24:04;;;;;;;4.60;1.40;;;;;;;16.55;45.56;100629.63;3568757;40;20406;-63
2022/06/19 04:26:35;;;;;;;4.63;1.17;;;;;;;16.58;46.24;100613.94;3569374;40;20049;-64
2022/06/19 04:29:01;;;;;;;4.47;1.08;;;;;;;16.61;46.67;100596.50;3572301;40;20288;-63
2022/06/19 04:31:27;;;;;;;4.70;1.40;;;;;;;16.63;46.44;100594.53;3574487;40;20053;-63
2022/06/19 04:33:53;;;;;;;7.00;1.40;;;;;;;16.69;46.88;100593.97;3571106;40;20059;-64
2022/06/19 04:36:21;;;;;;;7.18;1.55;;;;;;;16.78;47.31;100593.16;3569429;40;20151;-63
2022/06/19 04:38:50;;;;;;;6.15;1.60;;;;;;;16.77;46.81;100596.84;3573651;40;20052;-63
2022/06/19 04:41:31;;;;;;;3.28;1.17;;;;;;;16.79;46.98;100604.88;3573818;40;20053;-63
2022/06/19 04:43:59;;;;;;;4.20;1.00;;;;;;;16.74;47.72;100588.97;3574668;40;20064;-64
2022/06/19 04:46:26;;;;;;;8.50;1.90;;;;;;;16.82;48.16;100605.44;3569673;40;20072;-63
2022/06/19 04:48:53;;;;;;;4.57;1.70;;;;;;;16.91;47.60;100595.63;3576888;40;20076;-63
2022/06/19 04:51:18;;;;;;;9.95;1.98;;;;;;;16.91;47.30;100555.72;3575642;40;20122;-63
2022/06/19 04:53:45;;;;;;;6.95;1.83;;;;;;;16.98;48.55;100534.28;3573213;40;20049;-63
2022/06/19 04:56:14;;;;;;;6.80;1.60;;;;;;;17.01;48.08;100541.31;3571645;40;20104;-62
2022/06/19 04:58:40;;;;;;;6.88;1.40;;;;;;;16.99;48.14;100537.88;3571295;40;20056;-63
2022/06/19 05:01:35;;;;;;;4.88;1.70;;;;;;;16.95;48.02;100534.59;3570049;40;20762;-63
2022/06/19 05:04:09;;;;;;;6.25;1.40;;;;;;;16.96;48.24;100535.44;3569366;40;21586;-63
2022/06/19 05:06:35;;;;;;;;;;;;;;;16.94;48.21;100547.31;3573870;40;20060;-63
2022/06/19 05:09:01;;;;;;;8.48;1.50;;;;;;;16.97;48.58;100572.44;3573691;40;19980;-62
2022/06/19 05:11:31;;;;;;;7.03;1.50;;;;;;;17.01;48.61;100604.63;3574570;40;20073;-62
2022/06/19 05:13:58;;;;;;;4.82;1.60;;;;;;;17.03;48.06;100634.34;3569714;40;20138;-63
2022/06/19 05:16:25;;;;;;;3.03;1.17;;;;;;;17.01;47.63;100622.78;3569211;40;20060;-63
2022/06/19 05:18:54;;;;;;;5.93;1.60;;;;;;;17.05;48.26;100610.63;3570261;40;20146;-64
2022/06/19 05:21:21;;;;;;;5.95;1.50;;;;;;;17.08;48.32;100594.03;3571001;40;20135;-63
2022/06/19 05:23:50;;;;;;;7.20;1.70;;;;;;;16.92;47.38;100590.03;3571717;40;20084;-63
2022/06/19 05:26:32;;;;;;;6.70;1.40;;;;;;;17.14;48.24;100628.78;3567174;40;20289;-63
2022/06/19 05:28:59;;;;;;;6.00;1.40;;;;;;;17.17;47.81;100640.22;3569792;40;20403;-63
2022/06/19 05:31:28;;;;;;;6.75;1.60;;;;;;;17.29;47.65;100668.13;3570966;40;20380;-63
2022/06/19 05:33:55;;;;;;;3.92;1.42;;;;;;;17.35;48.21;100672.13;3572038;40;20405;-63
2022/06/19 05:36:22;;;;;;;6.25;1.40;;;;;;;17.42;47.21;100672.41;3574228;40;20057;-63
2022/06/19 05:38:50;;;;;;;6.30;1.80;;;;;;;17.54;47.33;100703.88;3564452;40;20061;-63
2022/06/19 05:41:16;;;;;;;7.15;1.63;;;;;;;17.32;47.10;100667.81;3570598;40;20059;-63
2022/06/19 05:43:42;;;;;;;6.95;1.85;;;;;;;17.79;47.11;100746.84;3571454;40;20064;-63
2022/06/19 05:46:16;;;;;;;5.68;1.50;;;;;;;17.95;45.72;100748.97;3570994;40;20060;-63
2022/06/19 05:48:42;;;;;;;7.05;1.77;;;;;;;18.12;45.85;100736.50;3573033;40;20051;-63
2022/06/19 05:51:19;;;;;;;6.18;1.48;;;;;;;18.24;46.04;100719.00;3568818;40;20060;-63
2022/06/19 05:53:50;;;;;;;5.45;1.63;;;;;;;18.24;45.91;100716.28;3574733;40;20118;-63
2022/06/19 05:56:17;;;;;;;6.93;1.45;;;;;;;18.20;47.69;100739.31;3573623;40;20053;-64
2022/06/19 05:58:43;;;;;;;9.45;1.77;;;;;;;18.16;46.84;100750.66;3575283;40;20155;-63
2022/06/19 06:01:11;;;;;;;3.70;1.52;;;;;;;18.30;46.41;100764.69;3571933;40;20067;-64
2022/06/19 06:03:37;;;;;;;6.75;1.60;;;;;;;18.23;46.42;100760.78;3571324;40;20112;-64
2022/06/19 06:06:11;;;;;;;6.60;1.50;;;;;;;18.18;46.19;100760.41;3572903;40;20394;-64
2022/06/19 06:08:38;;;;;;;8.70;1.77;;;;;;;18.14;47.09;100783.47;3570221;40;20411;-64
2022/06/19 06:11:05;;;;;;;6.57;1.65;;;;;;;18.19;46.70;100821.09;3568816;40;20096;-64
2022/06/19 06:13:32;;;;;;;7.40;1.83;;;;;;;17.80;47.47;100770.31;3572629;40;20122;-64
2022/06/19 06:15:58;;;;;;;5.72;1.90;;;;;;;18.17;47.17;100834.84;3568230;40;20049;-64
2022/06/19 06:18:25;;;;;;;7.03;1.63;;;;;;;18.15;48.22;100827.84;3569364;40;20069;-65
2022/06/19 06:21:05;;;;;;;6.50;1.67;;;;;;;17.96;47.33;100786.03;3571370;40;20097;-65
2022/06/19 06:23:31;;;;;;;7.22;1.52;;;;;;;18.00;48.19;100876.38;3574481;40;20053;-64
2022/06/19 06:26:08;;;;;;;5.78;1.38;;;;;;;17.91;48.82;100940.63;3571961;40;20272;-64
2022/06/19 06:28:36;;;;;;;5.32;1.27;;;;;;;17.85;49.64;100920.28;3568489;40;20053;-63
2022/06/19 06:31:03;;;;;;;9.05;1.40;;;;;;;17.81;51.43;100943.31;3562715;40;20118;-63
2022/06/19 06:33:29;;;;;;;7.40;1.80;;;;;;;17.76;52.91;100989.09;3567513;40;20307;-65
2022/06/19 06:35:57;;;;;;;5.63;1.60;;;;;;;17.66;54.52;101033.53;3568644;40;20295;-64
2022/06/19 06:38:24;;;;;;;7.63;1.60;;;;;;;17.63;55.94;101050.97;3570258;40;20057;-63
2022/06/19 06:40:51;;;;;;;10.05;2.10;;;;;;;17.56;56.17;101052.50;3570837;40;20317;-63
2022/06/19 06:43:18;;;;;;;8.98;1.70;;;;;;;17.49;56.85;101056.78;3571088;40;20068;-63
2022/06/19 06:45:44;;;;;;;5.93;1.60;;;;;;;17.39;56.99;101054.84;3568601;40;20057;-62
2022/06/19 06:48:10;;;;;;;7.32;2.13;;;;;;;17.33;57.34;101049.09;3567510;40;20065;-63
2022/06/19 06:50:39;;;;;;;7.65;1.70;;;;;;;17.30;57.67;101046.63;3570120;40;20065;-63
2022/06/19 06:53:06;;;;;;;7.97;1.83;;;;;;;17.30;58.53;101036.63;3566637;40;20072;-63
2022/06/19 06:55:36;;;;;;;6.20;1.73;;;;;;;17.30;58.81;101023.03;3567246;40;20109;-63
2022/06/19 06:58:01;;;;;;;10.80;1.70;;;;;;;17.27;58.02;101026.03;3567971;40;20380;-63
2022/06/19 07:00:27;;;;;;;6.03;1.60;;;;;;;17.20;58.17;101000.38;3571872;40;20107;-62
2022/06/19 07:02:52;;;;;;;7.63;1.88;;;;;;;17.32;58.06;100993.88;3569991;40;20053;-62
2022/06/19 07:05:18;;;;;;;5.70;1.88;;;;;;;17.09;57.65;100954.28;3572438;40;20052;-62
2022/06/19 07:07:44;;;;;;;6.35;1.75;;;;;;;17.28;56.80;100978.81;3575168;40;20045;-62
2022/06/19 07:10:11;;;;;;;7.68;1.75;;;;;;;17.38;57.26;100998.78;3569830;40;20060;-63
2022/06/19 07:12:36;;;;;;;14.40;2.10;;;;;;;17.35;56.23;101026.22;3570110;40;20397;-63
2022/06/19 07:15:02;;;;;;;8.88;1.85;;;;;;;17.29;56.16;101053.06;3568633;40;20411;-62
2022/06/19 07:17:28;;;;;;;6.78;1.73;;;;;;;17.26;56.07;101062.34;3569711;40;20048;-63
2022/06/19 07:19:53;;;;;;;7.28;1.67;;;;;;;17.18;57.12;101062.13;3566766;40;20061;-64
2022/06/19 07:22:19;;;;;;;8.32;1.63;;;;;;;17.05;57.43;101058.75;3568793;40;20065;-63
2022/06/19 07:24:46;;;;;;;9.05;1.58;;;;;;;16.85;58.28;101009.72;3569310;40;20056;-63
2022/06/19 07:27:13;;;;;;;5.63;1.75;;;;;;;16.77;60.05;100986.94;3570599;40;20090;-64
2022/06/19 07:29:45;;;;;;;12.52;2.42;;;;;;;16.62;61.84;100962.78;3574144;40;20392;-63
2022/06/19 07:32:12;;;;;;;6.50;1.83;;;;;;;16.41;64.08;100927.47;3570987;40;20415;-66
2022/06/19 07:34:41;;;;;;;10.35;1.98;;;;;;;16.22;65.28;100922.75;3574634;40;20072;-68
2022/06/19 07:37:07;;;;;;;8.40;1.85;;;;;;;16.05;67.01;100898.00;3567735;40;20045;-65
2022/06/19 07:39:35;;;;;;;11.65;2.45;;;;;;;15.95;68.88;100903.34;3559157;40;20048;-66
2022/06/19 07:42:01;;;;;;;10.25;2.40;;;;;;;15.79;69.41;100892.91;3569611;40;20065;-65
2022/06/19 07:44:27;;;;;;;7.50;1.85;;;;;;;15.69;70.25;100854.88;3570844;40;20056;-66
2022/06/19 07:52:21;;;;;;;7.70;2.10;;;;;;;15.62;71.92;100939.50;3567785;40;20362;-66
2022/06/19 07:54:47;;;;;;;12.32;2.42;;;;;;;15.66;71.89;100976.19;3569857;40;20117;-69
2022/06/19 07:57:13;;;;;;;10.40;1.88;;;;;;;15.65;72.64;101009.69;3572931;40;20051;-66
2022/06/19 07:59:39;;;;;;;9.93;2.25;;;;;;;15.66;71.31;101024.97;3570864;40;20433;-65
2022/06/19 08:02:05;;;;;;;10.15;2.30;;;;;;;15.75;72.29;101000.72;3566300;40;20068;-66
2022/06/19 08:04:31;;;;;;;8.93;2.25;;;;;;;15.81;72.32;100969.56;3568942;40;20079;-67
2022/06/19 08:06:57;;;;;;;7.22;2.08;;;;;;;15.79;72.26;100955.25;3570740;40;20387;-66
2022/06/19 08:09:22;;;;;;;17.65;2.50;;;;;;;15.78;73.14;100948.97;3569901;40;20087;-66
2022/06/19 08:11:48;;;;;;;12.40;2.70;;;;;;;15.84;72.50;100914.22;3567601;40;20056;-66
2022/06/19 08:14:13;;;;;;;11.55;2.20;;;;;;;15.86;72.42;100932.09;3570012;40;20052;-67
2022/06/19 08:16:39;;;;;;;12.88;2.65;;;;;;;15.85;72.23;100983.72;3570043;40;20063;-68
2022/06/19 08:19:05;;;;;;;13.65;2.67;;;;;;;15.82;72.22;100973.97;3568584;40;20093;-67
2022/06/19 08:21:31;;;;;;;12.63;2.65;;;;;;;15.31;73.90;100849.88;3567665;40;20133;-68
2022/06/19 08:23:56;;;;;;;11.48;2.38;;;;;;;15.74;75.13;100911.44;3566047;40;20064;-68
2022/06/19 08:26:22;;;;;;;12.52;2.85;;;;;;;15.86;75.09;100915.84;3569798;40;20388;-67
2022/06/19 08:29:02;;;;;;;10.00;1.92;;;;;;;15.95;75.25;100896.09;3570772;40;20057;-67
2022/06/19 08:31:31;;;;;;;13.32;3.03;;;;;;;16.06;75.42;100895.19;3569169;40;20591;-66
2022/06/19 08:33:57;;;;;;;11.85;2.50;;;;;;;16.09;73.55;100894.06;3569129;40;20060;-67
2022/06/19 08:36:25;;;;;;;13.27;2.58;;;;;;;16.15;74.43;100875.44;3570047;40;20053;-66
2022/06/19 08:39:02;;;;;;;9.70;2.35;;;;;;;16.12;73.81;100861.28;3568213;40;20065;-66
2022/06/19 08:42:16;;;;;;;11.13;2.47;;;;;;;16.11;74.29;100860.41;3566983;40;20130;-64
2022/06/19 08:45:07;;;;;;;9.77;2.60;;;;;;;16.04;74.46;100837.50;3569708;40;20108;-65
2022/06/19 08:48:27;;;;;;;11.98;2.83;;;;;;;15.96;75.17;100797.50;3569750;40;20059;-64
2022/06/19 08:51:52;;;;;;;9.73;2.42;;;;;;;16.00;75.67;100808.94;3568094;40;20068;-66
2022/06/19 08:54:47;;;;;;;9.82;2.70;;;;;;;16.11;75.81;100849.56;3556469;40;20091;-65
2022/06/19 08:57:54;;;;;;;10.05;2.42;;;;;;;16.14;75.72;100843.88;3569835;40;20374;-64
2022/06/19 09:01:04;;;;;;;9.45;2.80;;;;;;;16.23;75.83;100842.22;3575137;40;20326;-64
2022/06/19 09:07:17;;;;;;;14.38;3.28;;;;;;;16.46;74.87;100879.13;3574139;40;20099;-66
2022/06/19 09:10:27;;;;;;;11.48;2.63;;;;;;;16.66;72.41;100898.25;3557850;40;20071;-65
2022/06/19 09:13:53;;;;;;;13.18;2.80;;;;;;;16.90;73.18;100933.28;3569082;40;20377;-64
2022/06/19 09:16:32;;;;;;;12.98;2.97;;;;;;;17.02;71.79;100969.38;3568868;40;20074;-64
2022/06/19 09:19:10;;;;;;;9.20;3.10;;;;;;;17.10;69.87;100981.31;3559832;40;20060;-64
2022/06/19 09:22:16;;;;;;;11.20;2.72;;;;;;;17.20;69.92;100978.66;3568415;40;20064;-64
2022/06/19 09:25:11;;;;;;;9.35;2.65;;;;;;;17.35;69.77;100980.03;3570109;40;20076;-64
2022/06/19 09:28:19;;;;;;;10.85;2.95;;;;;;;17.49;68.54;100972.50;3567639;40;20064;-64
2022/06/19 09:31:15;;;;;;;10.88;2.63;;;;;;;17.67;70.61;100970.88;3564973;40;20130;-64
2022/06/19 09:34:11;;;;;;;9.98;2.50;;;;;;;17.72;66.06;100962.28;3568711;40;20052;-64
2022/06/19 09:36:49;;;;;;;8.02;2.38;;;;;;;17.81;64.80;100945.19;3568250;40;20500;-64
2022/06/19 09:39:46;;;;;;;10.23;2.65;;;;;;;17.86;64.90;100927.47;3567609;40;20092;-64
2022/06/19 09:42:37;;;;;;;10.48;2.80;;;;;;;18.04;64.99;100918.59;3568841;40;20327;-63
2022/06/19 09:45:34;;;;;;;12.63;2.65;;;;;;;18.15;64.45;100902.16;3566057;40;20076;-64
2022/06/19 09:48:23;;;;;;;7.72;2.65;;;;;;;18.30;63.29;100881.69;3568252;40;20338;-64
2022/06/19 09:51:17;;;;;;;9.82;2.90;;;;;;;18.41;63.99;100860.75;3570602;40;20063;-64
2022/06/19 09:53:54;;;;;;;9.15;2.50;;;;;;;18.59;62.88;100885.41;3570309;40;20061;-64
2022/06/19 09:56:46;;;;;;;8.77;2.63;;;;;;;18.61;64.23;100895.13;3566686;40;20068;-63
2022/06/19 09:59:26;;;;;;;10.55;3.10;;;;;;;18.59;62.17;100878.09;3569784;40;20054;-63
2022/06/19 10:02:03;;;;;;;10.98;2.22;;;;;;;18.65;63.75;100858.44;3568290;40;20335;-64
2022/06/19 10:04:43;;;;;;;10.80;2.90;;;;;;;18.78;62.41;100850.84;3567155;40;20060;-63
2022/06/19 10:07:43;;;;;;;9.65;2.80;;;;;;;18.79;63.65;100838.94;3566544;40;20119;-64
2022/06/19 10:10:29;;;;;;;7.93;2.65;;;;;;;19.11;63.06;100834.09;3565697;40;20049;-64
2022/06/19 10:13:01;;;;;;;10.35;2.75;;;;;;;19.46;60.66;100822.44;3569863;40;20063;-64
2022/06/19 10:15:34;;;;;;;8.95;2.33;;;;;;;19.70;59.12;100817.28;3568402;40;20048;-63
2022/06/19 10:18:31;;;;;;;10.80;2.33;;;;;;;19.74;60.60;100820.56;3566633;40;20395;-64
2022/06/19 10:24:58;;;;;;;8.35;2.13;;;;;;;19.68;55.97;100811.13;3568758;40;20058;-63
2022/06/19 10:27:58;;;;;;;10.35;2.05;;;;;;;19.71;54.88;100810.81;3569730;40;20100;-64
2022/06/19 10:30:33;;;;;;;6.18;2.13;;;;;;;19.75;54.35;100835.91;3567123;40;20292;-63
2022/06/19 10:33:30;;;;;;;6.47;1.92;;;;;;;19.80;54.15;100849.09;3568004;40;20055;-63
2022/06/19 10:36:13;;;;;;;7.97;2.25;;;;;;;19.80;54.94;100860.88;3568075;40;20311;-64
2022/06/19 10:39:19;;;;;;;6.50;2.08;;;;;;;19.75;54.61;100851.41;3570687;40;20060;-64
2022/06/19 10:42:06;;;;;;;7.15;2.00;;;;;;;19.77;55.43;100835.78;3568534;40;20049;-64
2022/06/19 10:44:40;;;;;;;8.25;2.08;;;;;;;20.15;55.94;100827.28;3568865;40;20071;-65
2022/06/19 10:48:01;;;;;;;8.82;2.08;;;;;;;20.35;53.63;100832.53;3570411;40;20060;-64
2022/06/19 10:51:01;;;;;;;7.07;1.75;;;;;;;20.61;51.80;100838.06;3572041;40;20114;-64
2022/06/19 10:53:38;;;;;;;6.32;1.60;;;;;;;20.83;51.27;100851.19;3571522;40;20126;-64
2022/06/19 10:56:48;;;;;;;6.07;1.92;;;;;;;20.78;49.75;100888.22;3568621;40;21051;-64
2022/06/19 10:59:15;;;;;;;6.45;1.67;;;;;;;20.78;48.89;100888.22;3572116;40;20055;-64
2022/06/19 11:05:06;;;;;;;5.90;1.90;;;;;;;21.38;46.91;100885.53;3570558;40;20056;-65
2022/06/19 11:07:33;;;;;;;6.65;2.00;;;;;;;21.62;47.96;100886.66;3571331;40;20056;-65
2022/06/19 11:10:19;;;;;;;7.10;3.20;;;;;;;21.71;48.29;100885.66;3568630;40;20052;-64
2022/06/19 11:12:56;;;;;;;5.18;1.75;;;;;;;21.66;47.22;100890.78;3569561;40;20065;-64
2022/06/19 11:15:24;;;;;;;5.28;1.77;;;;;;;21.77;46.37;100895.94;3569104;40;20389;-63
2022/06/19 11:18:13;;;;;;;4.55;1.65;;;;;;;21.87;46.57;100907.59;3572147;40;20388;-64
2022/06/19 11:21:05;;;;;;;4.65;1.17;;;;;;;21.78;45.26;100925.03;3570367;40;20379;-64
2022/06/19 11:24:00;;;;;;;5.65;1.70;;;;;;;21.64;46.16;100931.13;3570431;40;20064;-64
2022/06/19 11:26:42;;;;;;;5.30;1.70;;;;;;;21.63;46.28;100922.06;3564574;40;20055;-64
2022/06/19 11:29:20;;;;;;;4.93;1.48;;;;;;;21.50;46.33;100884.25;3567153;40;20049;-64
2022/06/19 11:32:13;;;;;;;4.97;1.92;;;;;;;21.62;46.74;100924.97;3569704;40;20049;-64
2022/06/19 11:34:53;;;;;;;4.70;1.77;;;;;;;21.68;47.83;100937.97;3572265;40;20053;-63
2022/06/19 11:37:50;;;;;;;7.10;1.90;;;;;;;21.60;47.33;100937.94;3567175;40;20130;-64
2022/06/19 11:40:37;;;;;;;7.43;2.08;;;;;;;21.53;47.77;100935.00;3570739;40;20057;-64
2022/06/19 11:43:05;;;;;;;5.40;1.95;;;;;;;21.70;47.71;100916.81;3569341;40;20045;-64
2022/06/19 11:45:36;;;;;;;5.40;1.70;;;;;;;21.79;46.94;100905.72;3570197;40;20055;-63
2022/06/19 11:48:13;;;;;;;4.90;1.73;;;;;;;22.11;45.60;100926.00;3570544;40;20339;-64
2022/06/19 11:50:53;;;;;;;3.97;1.92;;;;;;;22.26;46.93;100923.47;3570529;40;20411;-64
2022/06/19 11:53:40;;;;;;;3.30;1.67;;;;;;;22.42;45.50;100950.91;3573383;40;20064;-64
2022/06/19 11:56:30;;;;;;;9.52;2.13;;;;;;;22.52;45.42;100958.97;3567976;40;20063;-64
2022/06/19 11:59:04;;;;;;;6.82;2.10;;;;;;;22.66;47.21;100958.28;3569808;40;20112;-64
2022/06/19 12:01:48;;;;;;;5.78;1.98;;;;;;;22.77;47.02;100968.06;3569067;40;20063;-64
2022/06/19 12:04:39;;;;;;;5.90;2.03;;;;;;;22.72;45.29;100986.88;3566891;40;20055;-64
2022/06/19 12:07:19;;;;;;;3.83;1.92;;;;;;;22.72;44.72;100989.63;3570469;40;20065;-64
2022/06/19 12:10:00;;;;;;;5.68;1.85;;;;;;;22.65;45.33;100994.09;3567989;40;20045;-64
2022/06/19 12:12:30;;;;;;;5.82;2.28;;;;;;;22.53;45.32;101003.66;3570871;40;20104;-63